Terminal Aerodrome Forecast
Issued by NWS Blacksburg, VA

Current Version | Previous Version | Graphics & Text | Print | Product List | Glossary On
Versions: 1 2 3 4 5 6 7 8 9 10 11 12 13 14 15 16 17 18 19 20 21 22 23 24 25 26
000
FTUS41 KRNK 271120
TAFBLF
TAF
KBLF 271120Z 2712/2812 28004KT P6SM BKN070
     FM271300 28005KT P6SM VCSH BKN070
     FM271700 30009G17KT P6SM FEW050 SCT070
     FM280400 00000KT P6SM SKC=

USA.gov is the U.S. government's official web portal to all federal, state and local government web resources and services.